Paisley, Florida
Current Conditions -  °F | °C
As of 12:15 AM on Monday 20 Oct 2014 (Local Time) from KDED Reporting Station
Broken Clouds Broken Clouds  
Wind Chill: 66°   Ceiling: 3600
Heat Index: 66°   Visibility: 10mi
Dew Point: 63°   Wind: 3mph
Humidity: 88%   Direction: 330°NNW
Pressure: 30.07"   Gusts: NA
Location:  28.98°N, 81.54°W
Report Text: KDED 200415Z AUTO 33003KT 10SM BKN036 19/17 A3007 RMK AO1
Loading
Personal Weather Stations






























Interactive Weather Map
Tropical Storm Tracking
New forecast layout! Learn more

10-Day Weather Forecast

Advertisements
Track Severe Weather on mobile